Weisshorn — V2ER — position and weather

sailwx.info

Track history (hours):
 
Tides and Currents Weather Stations Pressure Air Temp Water Temp Dewpoint Dewpoint Depression Visibility Wind Speed Wind Dir Waves Ship Positions

Weisshorn

Last reported at 2018-Jul-22 06:52 UTC. Time now 2018-Jul-23 02:12 UTC.
Position N 23°01' W 083°39'.

Length 157.1 m; beam 23.5 m; draft 9.3 m.

Type: Ship (hazmat cat D). MMSI: 304010697.

Date/timePositionNaut miles runAvg speedWind from/ knotsBaromVisibWave heightAir tempDewpointWater temp
2018-Jul-22 06:52N 23°01' W 083°39'26512.3
2018-Jul-21 09:26N 25°29' W 079°39'511.9
2018-Jul-21 09:00N 25°34' W 079°40'611.2
2018-Jul-21 08:30N 25°39' W 079°43'612.2
2018-Jul-21 08:01N 25°44' W 079°47'612.0
2018-Jul-21 07:31N 25°49' W 079°51'611.8
2018-Jul-21 07:01N 25°54' W 079°55'611.8
2018-Jul-21 06:31N 25°58' W 079°59'612.4
2018-Jul-21 06:00N 26°03' W 080°03'4 7.5
2018-Jul-21 05:31N 26°05' W 080°07'1 2.6
2018-Jul-21 05:00N 26°04' W 080°07'0 0.0
2018-Jul-21 04:30N 26°04' W 080°07'0 0.0
2018-Jul-21 03:54N 26°04' W 080°07'0 0.0
2018-Jul-21 03:24N 26°04' W 080°07'0 0.0
2018-Jul-21 02:54N 26°04' W 080°07'0 0.0
2018-Jul-21 02:30N 26°04' W 080°07'0 0.0
2018-Jul-21 01:54N 26°04' W 080°07'0 0.0
2018-Jul-21 01:30N 26°04' W 080°07'0 0.0
2018-Jul-21 00:57N 26°04' W 080°07'0 0.0
2018-Jul-21 00:27N 26°04' W 080°07'0 0.0
2018-Jul-20 23:57N 26°04' W 080°07'0 0.0
2018-Jul-20 23:27N 26°04' W 080°07'0 0.0
2018-Jul-20 22:57N 26°04' W 080°07'0 0.0
2018-Jul-20 22:27N 26°04' W 080°07'0 0.0
2018-Jul-20 21:57N 26°04' W 080°07'0 0.0
2018-Jul-20 21:30N 26°04' W 080°07'0 0.0
2018-Jul-20 21:00N 26°04' W 080°07'0 0.0
2018-Jul-20 20:30N 26°04' W 080°07'0 0.0
2018-Jul-20 20:00N 26°04' W 080°07'0 0.0
2018-Jul-20 19:30N 26°04' W 080°07'0 0.0
2018-Jul-20 19:00N 26°04' W 080°07'0 0.0
2018-Jul-20 18:30N 26°04' W 080°07'0 0.0
2018-Jul-20 17:45N 26°04' W 080°07'0 0.0
2018-Jul-20 17:15N 26°04' W 080°07'0 0.0
2018-Jul-20 17:00N 26°04' W 080°07'0 0.0
2018-Jul-20 16:30N 26°04' W 080°07'0 0.0
2018-Jul-20 16:00N 26°04' W 080°07'0 0.0
2018-Jul-20 15:30N 26°04' W 080°07'0 0.0
2018-Jul-20 14:57N 26°04' W 080°07'0 0.0
2018-Jul-20 14:30N 26°04' W 080°07'0 0.1
2018-Jul-20 14:00N 26°04' W 080°07'1 2.7
2018-Jul-20 13:30N 26°05' W 080°07'4 7.5
2018-Jul-20 13:00N 26°07' W 080°03'510.5
2018-Jul-20 12:31N 26°12' W 080°02'611.9
2018-Jul-20 12:01N 26°18' W 080°01'612.2
2018-Jul-20 11:30N 26°24' W 079°60'612.6
2018-Jul-20 11:00N 26°31' W 079°59'612.3
2018-Jul-20 10:31N 26°37' W 079°59'611.8
2018-Jul-20 10:00N 26°42' W 079°58'611.4
2018-Jul-20 09:30N 26°48' W 079°58'611.4
2018-Jul-20 09:00N 26°54' W 079°58'611.5
2018-Jul-20 08:31N 26°60' W 079°58'9 0.2
2018-Jul-18 10:02N 27°09' W 079°58'216.7
2018-Jul-18 09:53N 27°06' W 079°58'616.8
2018-Jul-18 09:30N 26°60' W 079°58'917.3
2018-Jul-18 09:01N 26°51' W 079°58'1217.3
2018-Jul-18 08:20N 26°40' W 079°58'616.9
2018-Jul-18 08:00N 26°34' W 079°58'918.0
2018-Jul-18 07:31N 26°25' W 079°58'1019.2
2018-Jul-18 07:01N 26°16' W 079°60'917.3
2018-Jul-18 06:30N 26°07' W 080°03'4 8.4
2018-Jul-18 06:00N 26°05' W 080°07'1 1.6
2018-Jul-18 05:28N 26°04' W 080°07'0 0.0
2018-Jul-18 04:58N 26°04' W 080°07'0 0.0
2018-Jul-18 04:28N 26°04' W 080°07'0 0.0
2018-Jul-18 03:58N 26°04' W 080°07'0 0.0
2018-Jul-18 03:25N 26°04' W 080°07'0 0.0
2018-Jul-18 02:58N 26°04' W 080°07'0 0.0
2018-Jul-18 02:28N 26°04' W 080°07'0 0.0
2018-Jul-18 01:58N 26°04' W 080°07'0 0.0
2018-Jul-18 01:28N 26°04' W 080°07'0 0.0
2018-Jul-18 00:58N 26°04' W 080°07'0 0.0
2018-Jul-18 00:28N 26°04' W 080°07'0 0.0
2018-Jul-17 23:49N 26°04' W 080°07'1 1.7
2018-Jul-17 23:30N 26°05' W 080°07'3 6.2
2018-Jul-17 23:00N 26°05' W 080°03'815.9
2018-Jul-17 22:30N 25°58' W 079°59'918.5
2018-Jul-17 22:00N 25°51' W 079°53'918.4
2018-Jul-17 21:30N 25°43' W 079°47'917.9
2018-Jul-17 21:01N 25°35' W 079°42'  
2018-Jul-12 07:54N 09°36' W 080°01'513.7
2018-Jul-12 07:30N 09°33' W 079°56'815.0
2018-Jul-12 07:00N 09°26' W 079°54'  
Track history (hours):
 
Tides and Currents Weather Stations Pressure Air Temp Water Temp Dewpoint Dewpoint Depression Visibility Wind Speed Wind Dir Waves Ship Positions

Weisshorn

Last reported at 2018-Jul-22 06:52 UTC. Time now 2018-Jul-23 02:12 UTC.
Position N 23°01' W 083°39'.

Length 157.1 m; beam 23.5 m; draft 9.3 m.

Type: Ship (hazmat cat D). MMSI: 304010697.

Date/timePositionNaut miles runAvg speedWind from/ knotsBaromVisibWave heightAir tempDewpointWater temp
2018-Jul-22 06:52N 23°01' W 083°39'26512.3
2018-Jul-21 09:26N 25°29' W 079°39'511.9
2018-Jul-21 09:00N 25°34' W 079°40'611.2
2018-Jul-21 08:30N 25°39' W 079°43'612.2
2018-Jul-21 08:01N 25°44' W 079°47'612.0
2018-Jul-21 07:31N 25°49' W 079°51'611.8
2018-Jul-21 07:01N 25°54' W 079°55'611.8
2018-Jul-21 06:31N 25°58' W 079°59'612.4
2018-Jul-21 06:00N 26°03' W 080°03'4 7.5
2018-Jul-21 05:31N 26°05' W 080°07'1 2.6
2018-Jul-21 05:00N 26°04' W 080°07'0 0.0
2018-Jul-21 04:30N 26°04' W 080°07'0 0.0
2018-Jul-21 03:54N 26°04' W 080°07'0 0.0
2018-Jul-21 03:24N 26°04' W 080°07'0 0.0
2018-Jul-21 02:54N 26°04' W 080°07'0 0.0
2018-Jul-21 02:30N 26°04' W 080°07'0 0.0
2018-Jul-21 01:54N 26°04' W 080°07'0 0.0
2018-Jul-21 01:30N 26°04' W 080°07'0 0.0
2018-Jul-21 00:57N 26°04' W 080°07'0 0.0
2018-Jul-21 00:27N 26°04' W 080°07'0 0.0
2018-Jul-20 23:57N 26°04' W 080°07'0 0.0
2018-Jul-20 23:27N 26°04' W 080°07'0 0.0
2018-Jul-20 22:57N 26°04' W 080°07'0 0.0
2018-Jul-20 22:27N 26°04' W 080°07'0 0.0
2018-Jul-20 21:57N 26°04' W 080°07'0 0.0
2018-Jul-20 21:30N 26°04' W 080°07'0 0.0
2018-Jul-20 21:00N 26°04' W 080°07'0 0.0
2018-Jul-20 20:30N 26°04' W 080°07'0 0.0
2018-Jul-20 20:00N 26°04' W 080°07'0 0.0
2018-Jul-20 19:30N 26°04' W 080°07'0 0.0
2018-Jul-20 19:00N 26°04' W 080°07'0 0.0
2018-Jul-20 18:30N 26°04' W 080°07'0 0.0
2018-Jul-20 17:45N 26°04' W 080°07'0 0.0
2018-Jul-20 17:15N 26°04' W 080°07'0 0.0
2018-Jul-20 17:00N 26°04' W 080°07'0 0.0
2018-Jul-20 16:30N 26°04' W 080°07'0 0.0
2018-Jul-20 16:00N 26°04' W 080°07'0 0.0
2018-Jul-20 15:30N 26°04' W 080°07'0 0.0
2018-Jul-20 14:57N 26°04' W 080°07'0 0.0
2018-Jul-20 14:30N 26°04' W 080°07'0 0.1
2018-Jul-20 14:00N 26°04' W 080°07'1 2.7
2018-Jul-20 13:30N 26°05' W 080°07'4 7.5
2018-Jul-20 13:00N 26°07' W 080°03'510.5
2018-Jul-20 12:31N 26°12' W 080°02'611.9
2018-Jul-20 12:01N 26°18' W 080°01'612.2
2018-Jul-20 11:30N 26°24' W 079°60'612.6
2018-Jul-20 11:00N 26°31' W 079°59'612.3
2018-Jul-20 10:31N 26°37' W 079°59'611.8
2018-Jul-20 10:00N 26°42' W 079°58'611.4
2018-Jul-20 09:30N 26°48' W 079°58'611.4
2018-Jul-20 09:00N 26°54' W 079°58'611.5
2018-Jul-20 08:31N 26°60' W 079°58'9 0.2
2018-Jul-18 10:02N 27°09' W 079°58'216.7
2018-Jul-18 09:53N 27°06' W 079°58'616.8
2018-Jul-18 09:30N 26°60' W 079°58'917.3
2018-Jul-18 09:01N 26°51' W 079°58'1217.3
2018-Jul-18 08:20N 26°40' W 079°58'616.9
2018-Jul-18 08:00N 26°34' W 079°58'918.0
2018-Jul-18 07:31N 26°25' W 079°58'1019.2
2018-Jul-18 07:01N 26°16' W 079°60'917.3
2018-Jul-18 06:30N 26°07' W 080°03'4 8.4
2018-Jul-18 06:00N 26°05' W 080°07'1 1.6
2018-Jul-18 05:28N 26°04' W 080°07'0 0.0
2018-Jul-18 04:58N 26°04' W 080°07'0 0.0
2018-Jul-18 04:28N 26°04' W 080°07'0 0.0
2018-Jul-18 03:58N 26°04' W 080°07'0 0.0
2018-Jul-18 03:25N 26°04' W 080°07'0 0.0
2018-Jul-18 02:58N 26°04' W 080°07'0 0.0
2018-Jul-18 02:28N 26°04' W 080°07'0 0.0
2018-Jul-18 01:58N 26°04' W 080°07'0 0.0
2018-Jul-18 01:28N 26°04' W 080°07'0 0.0
2018-Jul-18 00:58N 26°04' W 080°07'0 0.0
2018-Jul-18 00:28N 26°04' W 080°07'0 0.0
2018-Jul-17 23:49N 26°04' W 080°07'1 1.7
2018-Jul-17 23:30N 26°05' W 080°07'3 6.2
2018-Jul-17 23:00N 26°05' W 080°03'815.9
2018-Jul-17 22:30N 25°58' W 079°59'918.5
2018-Jul-17 22:00N 25°51' W 079°53'918.4
2018-Jul-17 21:30N 25°43' W 079°47'917.9
2018-Jul-17 21:01N 25°35' W 079°42'  
2018-Jul-12 07:54N 09°36' W 080°01'513.7
2018-Jul-12 07:30N 09°33' W 079°56'815.0
2018-Jul-12 07:00N 09°26' W 079°54'  

Dump ship's entire track history